sensor_id;sensor_type;location;lat;lon;timestamp;P1;durP1;ratioP1;P2;durP2;ratioP2
24771;SDS011;12870;52.274;9.754;2023-03-01T00:02:20;0.40;;;0.40;;
24771;SDS011;12870;52.274;9.754;2023-03-01T00:04:46;0.40;;;0.40;;
24771;SDS011;12870;52.274;9.754;2023-03-01T00:07:12;0.40;;;0.40;;
24771;SDS011;12870;52.274;9.754;2023-03-01T00:09:37;0.40;;;0.40;;
24771;SDS011;12870;52.274;9.754;2023-03-01T00:12:05;0.43;;;0.43;;
24771;SDS011;12870;52.274;9.754;2023-03-01T00:14:31;0.40;;;0.40;;
24771;SDS011;12870;52.274;9.754;2023-03-01T00:16:57;0.40;;;0.40;;
24771;SDS011;12870;52.274;9.754;2023-03-01T00:19:23;0.40;;;0.40;;
24771;SDS011;12870;52.274;9.754;2023-03-01T00:21:49;0.40;;;0.40;;
24771;SDS011;12870;52.274;9.754;2023-03-01T00:24:15;0.40;;;0.40;;
24771;SDS011;12870;52.274;9.754;2023-03-01T00:26:41;0.40;;;0.40;;
24771;SDS011;12870;52.274;9.754;2023-03-01T00:29:06;0.40;;;0.40;;
24771;SDS011;12870;52.274;9.754;2023-03-01T00:31:32;0.40;;;0.40;;
24771;SDS011;12870;52.274;9.754;2023-03-01T00:34:02;0.50;;;0.50;;
24771;SDS011;12870;52.274;9.754;2023-03-01T00:36:31;0.43;;;0.43;;
24771;SDS011;12870;52.274;9.754;2023-03-01T00:38:58;0.40;;;0.40;;
24771;SDS011;12870;52.274;9.754;2023-03-01T00:41:24;0.40;;;0.40;;
24771;SDS011;12870;52.274;9.754;2023-03-01T00:43:53;0.50;;;0.50;;
24771;SDS011;12870;52.274;9.754;2023-03-01T00:46:20;0.40;;;0.40;;
24771;SDS011;12870;52.274;9.754;2023-03-01T00:48:47;0.50;;;0.50;;
24771;SDS011;12870;52.274;9.754;2023-03-01T00:51:14;0.40;;;0.40;;
24771;SDS011;12870;52.274;9.754;2023-03-01T00:53:42;0.40;;;0.40;;
24771;SDS011;12870;52.274;9.754;2023-03-01T00:56:08;0.40;;;0.40;;
24771;SDS011;12870;52.274;9.754;2023-03-01T00:58:35;0.40;;;0.40;;
24771;SDS011;12870;52.274;9.754;2023-03-01T01:01:01;0.40;;;0.40;;
24771;SDS011;12870;52.274;9.754;2023-03-01T01:03:31;0.50;;;0.50;;
24771;SDS011;12870;52.274;9.754;2023-03-01T01:05:57;0.50;;;0.50;;
24771;SDS011;12870;52.274;9.754;2023-03-01T01:08:23;0.40;;;0.40;;
24771;SDS011;12870;52.274;9.754;2023-03-01T01:10:48;0.40;;;0.40;;
24771;SDS011;12870;52.274;9.754;2023-03-01T01:13:14;0.40;;;0.40;;
24771;SDS011;12870;52.274;9.754;2023-03-01T01:15:40;0.43;;;0.43;;
24771;SDS011;12870;52.274;9.754;2023-03-01T01:18:05;0.40;;;0.40;;
24771;SDS011;12870;52.274;9.754;2023-03-01T01:20:32;0.40;;;0.40;;
24771;SDS011;12870;52.274;9.754;2023-03-01T01:22:57;0.50;;;0.50;;
24771;SDS011;12870;52.274;9.754;2023-03-01T01:25:23;0.40;;;0.40;;
24771;SDS011;12870;52.274;9.754;2023-03-01T01:27:52;0.50;;;0.50;;
24771;SDS011;12870;52.274;9.754;2023-03-01T01:30:17;0.50;;;0.50;;
24771;SDS011;12870;52.274;9.754;2023-03-01T01:32:43;0.40;;;0.40;;
24771;SDS011;12870;52.274;9.754;2023-03-01T01:35:09;0.43;;;0.43;;
24771;SDS011;12870;52.274;9.754;2023-03-01T01:37:34;0.50;;;0.50;;
24771;SDS011;12870;52.274;9.754;2023-03-01T01:40:00;0.50;;;0.50;;
24771;SDS011;12870;52.274;9.754;2023-03-01T01:42:29;0.50;;;0.50;;
24771;SDS011;12870;52.274;9.754;2023-03-01T01:47:54;0.50;;;0.50;;
24771;SDS011;12870;52.274;9.754;2023-03-01T01:50:23;0.40;;;0.40;;
24771;SDS011;12870;52.274;9.754;2023-03-01T01:52:50;0.50;;;0.50;;
24771;SDS011;12870;52.274;9.754;2023-03-01T01:55:19;0.40;;;0.40;;
24771;SDS011;12870;52.274;9.754;2023-03-01T01:57:49;0.40;;;0.40;;
24771;SDS011;12870;52.274;9.754;2023-03-01T02:00:19;0.50;;;0.50;;
24771;SDS011;12870;52.274;9.754;2023-03-01T02:02:48;0.40;;;0.40;;
24771;SDS011;12870;52.274;9.754;2023-03-01T02:07:42;0.50;;;0.50;;
24771;SDS011;12870;52.274;9.754;2023-03-01T02:10:09;0.40;;;0.40;;
24771;SDS011;12870;52.274;9.754;2023-03-01T02:12:35;0.40;;;0.40;;
24771;SDS011;12870;52.274;9.754;2023-03-01T02:15:04;0.40;;;0.40;;
24771;SDS011;12870;52.274;9.754;2023-03-01T02:17:30;0.40;;;0.40;;
24771;SDS011;12870;52.274;9.754;2023-03-01T02:22:23;0.50;;;0.50;;
24771;SDS011;12870;52.274;9.754;2023-03-01T02:25:05;0.50;;;0.50;;
24771;SDS011;12870;52.274;9.754;2023-03-01T02:27:55;0.50;;;0.50;;
24771;SDS011;12870;52.274;9.754;2023-03-01T02:30:39;0.40;;;0.40;;
24771;SDS011;12870;52.274;9.754;2023-03-01T02:33:25;0.50;;;0.50;;
24771;SDS011;12870;52.274;9.754;2023-03-01T02:35:51;0.50;;;0.50;;
24771;SDS011;12870;52.274;9.754;2023-03-01T02:38:20;0.50;;;0.50;;
24771;SDS011;12870;52.274;9.754;2023-03-01T02:40:47;0.40;;;0.40;;
24771;SDS011;12870;52.274;9.754;2023-03-01T02:43:15;0.40;;;0.40;;
24771;SDS011;12870;52.274;9.754;2023-03-01T02:45:49;0.40;;;0.40;;
24771;SDS011;12870;52.274;9.754;2023-03-01T02:48:17;0.40;;;0.40;;
24771;SDS011;12870;52.274;9.754;2023-03-01T02:56:02;0.50;;;0.50;;
24771;SDS011;12870;52.274;9.754;2023-03-01T02:58:28;0.47;;;0.47;;
24771;SDS011;12870;52.274;9.754;2023-03-01T03:00:53;0.50;;;0.50;;
24771;SDS011;12870;52.274;9.754;2023-03-01T03:03:20;0.50;;;0.50;;
24771;SDS011;12870;52.274;9.754;2023-03-01T03:05:47;0.50;;;0.50;;
24771;SDS011;12870;52.274;9.754;2023-03-01T03:08:13;0.50;;;0.50;;
24771;SDS011;12870;52.274;9.754;2023-03-01T03:10:41;0.40;;;0.40;;
24771;SDS011;12870;52.274;9.754;2023-03-01T03:13:11;0.50;;;0.50;;
24771;SDS011;12870;52.274;9.754;2023-03-01T03:15:39;0.50;;;0.50;;
24771;SDS011;12870;52.274;9.754;2023-03-01T03:18:07;0.50;;;0.50;;
24771;SDS011;12870;52.274;9.754;2023-03-01T03:20:35;0.50;;;0.50;;
24771;SDS011;12870;52.274;9.754;2023-03-01T03:23:01;0.40;;;0.40;;
24771;SDS011;12870;52.274;9.754;2023-03-01T03:25:28;0.40;;;0.40;;
24771;SDS011;12870;52.274;9.754;2023-03-01T03:27:54;0.50;;;0.50;;
24771;SDS011;12870;52.274;9.754;2023-03-01T03:30:25;0.50;;;0.50;;
24771;SDS011;12870;52.274;9.754;2023-03-01T03:32:56;0.40;;;0.40;;
24771;SDS011;12870;52.274;9.754;2023-03-01T03:35:30;0.43;;;0.43;;
24771;SDS011;12870;52.274;9.754;2023-03-01T03:38:01;0.40;;;0.40;;
24771;SDS011;12870;52.274;9.754;2023-03-01T03:40:40;0.40;;;0.40;;
24771;SDS011;12870;52.274;9.754;2023-03-01T03:43:09;0.50;;;0.50;;
24771;SDS011;12870;52.274;9.754;2023-03-01T03:45:37;0.50;;;0.50;;
24771;SDS011;12870;52.274;9.754;2023-03-01T03:48:03;0.50;;;0.50;;
24771;SDS011;12870;52.274;9.754;2023-03-01T03:50:30;0.40;;;0.40;;
24771;SDS011;12870;52.274;9.754;2023-03-01T03:52:56;0.50;;;0.50;;
24771;SDS011;12870;52.274;9.754;2023-03-01T03:55:22;0.50;;;0.50;;
24771;SDS011;12870;52.274;9.754;2023-03-01T03:57:48;0.50;;;0.50;;
24771;SDS011;12870;52.274;9.754;2023-03-01T04:00:20;0.50;;;0.50;;
24771;SDS011;12870;52.274;9.754;2023-03-01T04:02:48;0.40;;;0.40;;
24771;SDS011;12870;52.274;9.754;2023-03-01T04:05:16;0.50;;;0.50;;
24771;SDS011;12870;52.274;9.754;2023-03-01T04:07:44;0.50;;;0.50;;
24771;SDS011;12870;52.274;9.754;2023-03-01T04:10:11;0.50;;;0.50;;
24771;SDS011;12870;52.274;9.754;2023-03-01T04:12:38;0.50;;;0.50;;
24771;SDS011;12870;52.274;9.754;2023-03-01T04:15:05;0.40;;;0.40;;
24771;SDS011;12870;52.274;9.754;2023-03-01T04:17:39;0.40;;;0.40;;
24771;SDS011;12870;52.274;9.754;2023-03-01T04:20:09;0.50;;;0.50;;
24771;SDS011;12870;52.274;9.754;2023-03-01T04:22:37;0.40;;;0.40;;
24771;SDS011;12870;52.274;9.754;2023-03-01T04:25:03;0.50;;;0.50;;
24771;SDS011;12870;52.274;9.754;2023-03-01T04:27:32;0.50;;;0.50;;
24771;SDS011;12870;52.274;9.754;2023-03-01T04:29:58;0.50;;;0.50;;
24771;SDS011;12870;52.274;9.754;2023-03-01T04:32:24;0.50;;;0.50;;
24771;SDS011;12870;52.274;9.754;2023-03-01T04:34:49;0.50;;;0.50;;
24771;SDS011;12870;52.274;9.754;2023-03-01T04:37:15;0.40;;;0.40;;
24771;SDS011;12870;52.274;9.754;2023-03-01T04:39:41;0.50;;;0.50;;
24771;SDS011;12870;52.274;9.754;2023-03-01T04:42:19;0.50;;;0.50;;
24771;SDS011;12870;52.274;9.754;2023-03-01T04:44:45;0.43;;;0.43;;
24771;SDS011;12870;52.274;9.754;2023-03-01T04:47:11;0.50;;;0.50;;
24771;SDS011;12870;52.274;9.754;2023-03-01T04:49:37;0.50;;;0.50;;
24771;SDS011;12870;52.274;9.754;2023-03-01T04:52:03;0.50;;;0.50;;
24771;SDS011;12870;52.274;9.754;2023-03-01T04:54:32;0.40;;;0.40;;
24771;SDS011;12870;52.274;9.754;2023-03-01T04:56:59;0.50;;;0.50;;
24771;SDS011;12870;52.274;9.754;2023-03-01T04:59:26;0.40;;;0.40;;
24771;SDS011;12870;52.274;9.754;2023-03-01T05:01:53;0.50;;;0.50;;
24771;SDS011;12870;52.274;9.754;2023-03-01T05:04:25;0.50;;;0.50;;
24771;SDS011;12870;52.274;9.754;2023-03-01T05:06:51;0.50;;;0.50;;
24771;SDS011;12870;52.274;9.754;2023-03-01T05:09:18;0.40;;;0.40;;
24771;SDS011;12870;52.274;9.754;2023-03-01T05:11:44;0.50;;;0.50;;
24771;SDS011;12870;52.274;9.754;2023-03-01T05:14:09;0.50;;;0.50;;
24771;SDS011;12870;52.274;9.754;2023-03-01T05:16:35;0.50;;;0.50;;
24771;SDS011;12870;52.274;9.754;2023-03-01T05:19:02;0.50;;;0.50;;
24771;SDS011;12870;52.274;9.754;2023-03-01T05:21:39;0.50;;;0.50;;
24771;SDS011;12870;52.274;9.754;2023-03-01T05:24:24;0.50;;;0.50;;
24771;SDS011;12870;52.274;9.754;2023-03-01T05:26:51;0.50;;;0.50;;
24771;SDS011;12870;52.274;9.754;2023-03-01T05:29:23;0.50;;;0.50;;
24771;SDS011;12870;52.274;9.754;2023-03-01T05:31:53;0.50;;;0.50;;
24771;SDS011;12870;52.274;9.754;2023-03-01T05:34:24;0.50;;;0.50;;
24771;SDS011;12870;52.274;9.754;2023-03-01T05:36:54;0.40;;;0.40;;
24771;SDS011;12870;52.274;9.754;2023-03-01T05:39:20;0.50;;;0.50;;
24771;SDS011;12870;52.274;9.754;2023-03-01T05:41:47;0.50;;;0.50;;
24771;SDS011;12870;52.274;9.754;2023-03-01T05:44:16;0.50;;;0.50;;
24771;SDS011;12870;52.274;9.754;2023-03-01T05:46:42;0.50;;;0.50;;
24771;SDS011;12870;52.274;9.754;2023-03-01T05:49:07;0.50;;;0.50;;
24771;SDS011;12870;52.274;9.754;2023-03-01T05:51:33;0.43;;;0.43;;
24771;SDS011;12870;52.274;9.754;2023-03-01T05:53:59;0.50;;;0.50;;
24771;SDS011;12870;52.274;9.754;2023-03-01T05:56:24;0.50;;;0.50;;
24771;SDS011;12870;52.274;9.754;2023-03-01T05:58:50;0.50;;;0.50;;
24771;SDS011;12870;52.274;9.754;2023-03-01T06:01:16;0.50;;;0.50;;
24771;SDS011;12870;52.274;9.754;2023-03-01T06:03:41;0.50;;;0.50;;
24771;SDS011;12870;52.274;9.754;2023-03-01T06:06:07;0.50;;;0.50;;
24771;SDS011;12870;52.274;9.754;2023-03-01T06:08:33;0.50;;;0.50;;
24771;SDS011;12870;52.274;9.754;2023-03-01T06:10:59;0.50;;;0.50;;
24771;SDS011;12870;52.274;9.754;2023-03-01T06:13:24;0.50;;;0.50;;
24771;SDS011;12870;52.274;9.754;2023-03-01T06:15:50;0.50;;;0.50;;
24771;SDS011;12870;52.274;9.754;2023-03-01T06:18:16;0.50;;;0.50;;
24771;SDS011;12870;52.274;9.754;2023-03-01T06:20:42;0.50;;;0.50;;
24771;SDS011;12870;52.274;9.754;2023-03-01T06:23:08;0.50;;;0.50;;
24771;SDS011;12870;52.274;9.754;2023-03-01T06:25:34;0.50;;;0.50;;
24771;SDS011;12870;52.274;9.754;2023-03-01T06:27:59;0.50;;;0.50;;
24771;SDS011;12870;52.274;9.754;2023-03-01T06:30:25;0.50;;;0.50;;
24771;SDS011;12870;52.274;9.754;2023-03-01T06:32:51;0.50;;;0.50;;
24771;SDS011;12870;52.274;9.754;2023-03-01T06:35:17;0.50;;;0.50;;
24771;SDS011;12870;52.274;9.754;2023-03-01T06:37:44;0.50;;;0.50;;
24771;SDS011;12870;52.274;9.754;2023-03-01T06:40:11;0.50;;;0.50;;
24771;SDS011;12870;52.274;9.754;2023-03-01T06:42:39;0.50;;;0.50;;
24771;SDS011;12870;52.274;9.754;2023-03-01T06:45:06;0.50;;;0.50;;
24771;SDS011;12870;52.274;9.754;2023-03-01T06:47:33;0.50;;;0.50;;
24771;SDS011;12870;52.274;9.754;2023-03-01T06:49:59;0.50;;;0.50;;
24771;SDS011;12870;52.274;9.754;2023-03-01T06:52:26;0.50;;;0.50;;
24771;SDS011;12870;52.274;9.754;2023-03-01T06:54:51;0.50;;;0.50;;
24771;SDS011;12870;52.274;9.754;2023-03-01T06:57:17;0.50;;;0.50;;
24771;SDS011;12870;52.274;9.754;2023-03-01T06:59:43;0.50;;;0.50;;
24771;SDS011;12870;52.274;9.754;2023-03-01T07:02:12;0.50;;;0.50;;
24771;SDS011;12870;52.274;9.754;2023-03-01T07:04:38;0.50;;;0.50;;
24771;SDS011;12870;52.274;9.754;2023-03-01T07:07:04;0.50;;;0.50;;
24771;SDS011;12870;52.274;9.754;2023-03-01T07:09:30;0.47;;;0.47;;
24771;SDS011;12870;52.274;9.754;2023-03-01T07:11:56;0.50;;;0.50;;
24771;SDS011;12870;52.274;9.754;2023-03-01T07:14:22;0.50;;;0.50;;
24771;SDS011;12870;52.274;9.754;2023-03-01T07:16:54;0.50;;;0.50;;
24771;SDS011;12870;52.274;9.754;2023-03-01T07:19:20;0.50;;;0.50;;
24771;SDS011;12870;52.274;9.754;2023-03-01T07:21:46;0.50;;;0.50;;
24771;SDS011;12870;52.274;9.754;2023-03-01T07:24:12;0.50;;;0.50;;
24771;SDS011;12870;52.274;9.754;2023-03-01T07:26:38;0.50;;;0.50;;
24771;SDS011;12870;52.274;9.754;2023-03-01T07:29:05;0.50;;;0.50;;
24771;SDS011;12870;52.274;9.754;2023-03-01T07:31:32;0.50;;;0.50;;
24771;SDS011;12870;52.274;9.754;2023-03-01T07:33:58;0.50;;;0.50;;
24771;SDS011;12870;52.274;9.754;2023-03-01T07:36:24;0.50;;;0.50;;
24771;SDS011;12870;52.274;9.754;2023-03-01T07:38:50;0.50;;;0.50;;
24771;SDS011;12870;52.274;9.754;2023-03-01T07:41:16;0.50;;;0.50;;
24771;SDS011;12870;52.274;9.754;2023-03-01T07:43:42;0.50;;;0.50;;
24771;SDS011;12870;52.274;9.754;2023-03-01T07:46:08;0.50;;;0.50;;
24771;SDS011;12870;52.274;9.754;2023-03-01T07:48:33;0.50;;;0.50;;
24771;SDS011;12870;52.274;9.754;2023-03-01T07:51:00;0.50;;;0.50;;
24771;SDS011;12870;52.274;9.754;2023-03-01T07:53:27;0.50;;;0.50;;
24771;SDS011;12870;52.274;9.754;2023-03-01T07:56:00;0.50;;;0.50;;
24771;SDS011;12870;52.274;9.754;2023-03-01T07:58:30;0.40;;;0.40;;
24771;SDS011;12870;52.274;9.754;2023-03-01T08:00:55;0.40;;;0.40;;
24771;SDS011;12870;52.274;9.754;2023-03-01T08:03:21;0.50;;;0.50;;
24771;SDS011;12870;52.274;9.754;2023-03-01T08:05:47;0.40;;;0.40;;
24771;SDS011;12870;52.274;9.754;2023-03-01T08:08:12;0.40;;;0.40;;
24771;SDS011;12870;52.274;9.754;2023-03-01T08:10:38;0.50;;;0.50;;
24771;SDS011;12870;52.274;9.754;2023-03-01T08:13:03;0.40;;;0.40;;
24771;SDS011;12870;52.274;9.754;2023-03-01T08:15:29;0.40;;;0.40;;
24771;SDS011;12870;52.274;9.754;2023-03-01T08:17:55;0.50;;;0.50;;
24771;SDS011;12870;52.274;9.754;2023-03-01T08:20:20;0.40;;;0.40;;
24771;SDS011;12870;52.274;9.754;2023-03-01T08:22:46;0.50;;;0.50;;
24771;SDS011;12870;52.274;9.754;2023-03-01T08:25:12;0.40;;;0.40;;
24771;SDS011;12870;52.274;9.754;2023-03-01T08:27:37;0.40;;;0.40;;
24771;SDS011;12870;52.274;9.754;2023-03-01T08:30:03;0.50;;;0.50;;
24771;SDS011;12870;52.274;9.754;2023-03-01T08:32:29;0.50;;;0.50;;
24771;SDS011;12870;52.274;9.754;2023-03-01T08:34:59;0.40;;;0.40;;
24771;SDS011;12870;52.274;9.754;2023-03-01T08:37:25;0.40;;;0.40;;
24771;SDS011;12870;52.274;9.754;2023-03-01T08:39:51;0.43;;;0.43;;
24771;SDS011;12870;52.274;9.754;2023-03-01T08:42:16;0.40;;;0.40;;
24771;SDS011;12870;52.274;9.754;2023-03-01T08:44:42;0.40;;;0.40;;
24771;SDS011;12870;52.274;9.754;2023-03-01T08:47:08;0.43;;;0.43;;
24771;SDS011;12870;52.274;9.754;2023-03-01T08:49:33;0.40;;;0.40;;
24771;SDS011;12870;52.274;9.754;2023-03-01T08:51:59;0.40;;;0.40;;
24771;SDS011;12870;52.274;9.754;2023-03-01T08:54:27;0.40;;;0.40;;
24771;SDS011;12870;52.274;9.754;2023-03-01T08:56:53;0.40;;;0.40;;
24771;SDS011;12870;52.274;9.754;2023-03-01T08:59:19;0.40;;;0.40;;
24771;SDS011;12870;52.274;9.754;2023-03-01T09:01:45;0.40;;;0.40;;
24771;SDS011;12870;52.274;9.754;2023-03-01T09:04:11;0.40;;;0.40;;
24771;SDS011;12870;52.274;9.754;2023-03-01T09:06:37;0.40;;;0.40;;
24771;SDS011;12870;52.274;9.754;2023-03-01T09:09:04;0.40;;;0.40;;
24771;SDS011;12870;52.274;9.754;2023-03-01T09:11:30;0.40;;;0.40;;
24771;SDS011;12870;52.274;9.754;2023-03-01T09:13:56;0.40;;;0.40;;
24771;SDS011;12870;52.274;9.754;2023-03-01T09:16:23;0.40;;;0.40;;
24771;SDS011;12870;52.274;9.754;2023-03-01T09:18:53;0.40;;;0.40;;
24771;SDS011;12870;52.274;9.754;2023-03-01T09:21:20;0.40;;;0.40;;
24771;SDS011;12870;52.274;9.754;2023-03-01T09:23:48;0.40;;;0.40;;
24771;SDS011;12870;52.274;9.754;2023-03-01T09:26:15;0.40;;;0.40;;
24771;SDS011;12870;52.274;9.754;2023-03-01T09:28:44;0.30;;;0.30;;
24771;SDS011;12870;52.274;9.754;2023-03-01T09:31:10;0.30;;;0.30;;
24771;SDS011;12870;52.274;9.754;2023-03-01T09:33:40;0.30;;;0.30;;
24771;SDS011;12870;52.274;9.754;2023-03-01T09:36:09;0.30;;;0.30;;
24771;SDS011;12870;52.274;9.754;2023-03-01T09:38:37;0.30;;;0.30;;
24771;SDS011;12870;52.274;9.754;2023-03-01T09:41:08;0.40;;;0.40;;
24771;SDS011;12870;52.274;9.754;2023-03-01T09:43:55;0.30;;;0.30;;
24771;SDS011;12870;52.274;9.754;2023-03-01T09:46:24;0.40;;;0.40;;
24771;SDS011;12870;52.274;9.754;2023-03-01T09:51:42;0.30;;;0.30;;
24771;SDS011;12870;52.274;9.754;2023-03-01T09:54:08;0.30;;;0.30;;
24771;SDS011;12870;52.274;9.754;2023-03-01T10:04:36;0.30;;;0.30;;
24771;SDS011;12870;52.274;9.754;2023-03-01T10:07:19;0.40;;;0.40;;
24771;SDS011;12870;52.274;9.754;2023-03-01T10:09:56;0.30;;;0.30;;
24771;SDS011;12870;52.274;9.754;2023-03-01T10:12:24;0.30;;;0.30;;
24771;SDS011;12870;52.274;9.754;2023-03-01T10:15:18;0.30;;;0.30;;
24771;SDS011;12870;52.274;9.754;2023-03-01T10:17:51;0.30;;;0.30;;
24771;SDS011;12870;52.274;9.754;2023-03-01T10:20:41;0.30;;;0.30;;
24771;SDS011;12870;52.274;9.754;2023-03-01T10:23:15;0.30;;;0.30;;
24771;SDS011;12870;52.274;9.754;2023-03-01T10:29:03;0.30;;;0.30;;
24771;SDS011;12870;52.274;9.754;2023-03-01T10:31:44;0.30;;;0.30;;
24771;SDS011;12870;52.274;9.754;2023-03-01T10:34:15;0.30;;;0.30;;
24771;SDS011;12870;52.274;9.754;2023-03-01T10:36:44;0.30;;;0.30;;
24771;SDS011;12870;52.274;9.754;2023-03-01T10:39:16;0.30;;;0.30;;
24771;SDS011;12870;52.274;9.754;2023-03-01T10:41:51;0.30;;;0.30;;
24771;SDS011;12870;52.274;9.754;2023-03-01T10:47:03;0.30;;;0.30;;
24771;SDS011;12870;52.274;9.754;2023-03-01T10:49:29;0.30;;;0.30;;
24771;SDS011;12870;52.274;9.754;2023-03-01T10:51:55;0.30;;;0.30;;
24771;SDS011;12870;52.274;9.754;2023-03-01T10:56:53;0.30;;;0.30;;
24771;SDS011;12870;52.274;9.754;2023-03-01T10:59:42;0.20;;;0.20;;
24771;SDS011;12870;52.274;9.754;2023-03-01T11:07:24;0.20;;;0.20;;
24771;SDS011;12870;52.274;9.754;2023-03-01T11:09:49;0.20;;;0.20;;
24771;SDS011;12870;52.274;9.754;2023-03-01T11:12:15;0.20;;;0.20;;
24771;SDS011;12870;52.274;9.754;2023-03-01T11:14:53;0.20;;;0.20;;
24771;SDS011;12870;52.274;9.754;2023-03-01T11:17:29;0.20;;;0.20;;
24771;SDS011;12870;52.274;9.754;2023-03-01T11:20:03;0.20;;;0.20;;
24771;SDS011;12870;52.274;9.754;2023-03-01T11:22:42;0.20;;;0.20;;
24771;SDS011;12870;52.274;9.754;2023-03-01T11:25:42;0.20;;;0.20;;
24771;SDS011;12870;52.274;9.754;2023-03-01T11:28:18;0.20;;;0.20;;
24771;SDS011;12870;52.274;9.754;2023-03-01T11:33:32;0.20;;;0.20;;
24771;SDS011;12870;52.274;9.754;2023-03-01T11:38:32;0.20;;;0.20;;
24771;SDS011;12870;52.274;9.754;2023-03-01T11:41:04;0.20;;;0.20;;
24771;SDS011;12870;52.274;9.754;2023-03-01T12:00:06;0.20;;;0.20;;
24771;SDS011;12870;52.274;9.754;2023-03-01T12:02:48;0.20;;;0.20;;
24771;SDS011;12870;52.274;9.754;2023-03-01T12:14:12;0.20;;;0.20;;
24771;SDS011;12870;52.274;9.754;2023-03-01T12:16:56;0.20;;;0.20;;
24771;SDS011;12870;52.274;9.754;2023-03-01T12:25:37;0.20;;;0.20;;
24771;SDS011;12870;52.274;9.754;2023-03-01T12:28:19;0.20;;;0.20;;
24771;SDS011;12870;52.274;9.754;2023-03-01T12:31:24;0.20;;;0.20;;
24771;SDS011;12870;52.274;9.754;2023-03-01T12:39:53;0.20;;;0.20;;
24771;SDS011;12870;52.274;9.754;2023-03-01T12:50:42;0.20;;;0.20;;
24771;SDS011;12870;52.274;9.754;2023-03-01T12:56:19;0.10;;;0.10;;
24771;SDS011;12870;52.274;9.754;2023-03-01T13:01:45;0.20;;;0.20;;
24771;SDS011;12870;52.274;9.754;2023-03-01T13:09:39;0.20;;;0.20;;
24771;SDS011;12870;52.274;9.754;2023-03-01T13:17:48;0.20;;;0.20;;
24771;SDS011;12870;52.274;9.754;2023-03-01T13:20:16;0.10;;;0.10;;
24771;SDS011;12870;52.274;9.754;2023-03-01T13:22:45;0.20;;;0.20;;
24771;SDS011;12870;52.274;9.754;2023-03-01T13:25:16;0.20;;;0.20;;
24771;SDS011;12870;52.274;9.754;2023-03-01T13:27:44;0.20;;;0.20;;
24771;SDS011;12870;52.274;9.754;2023-03-01T13:35:56;0.20;;;0.20;;
24771;SDS011;12870;52.274;9.754;2023-03-01T13:41:17;0.20;;;0.20;;
24771;SDS011;12870;52.274;9.754;2023-03-01T13:46:49;0.20;;;0.20;;
24771;SDS011;12870;52.274;9.754;2023-03-01T13:49:21;0.20;;;0.20;;
24771;SDS011;12870;52.274;9.754;2023-03-01T13:51:51;0.20;;;0.20;;
24771;SDS011;12870;52.274;9.754;2023-03-01T13:54:28;0.20;;;0.20;;
24771;SDS011;12870;52.274;9.754;2023-03-01T13:56:56;0.20;;;0.20;;
24771;SDS011;12870;52.274;9.754;2023-03-01T13:59:24;0.20;;;0.20;;
24771;SDS011;12870;52.274;9.754;2023-03-01T14:01:55;0.20;;;0.20;;
24771;SDS011;12870;52.274;9.754;2023-03-01T14:04:27;0.20;;;0.20;;
24771;SDS011;12870;52.274;9.754;2023-03-01T14:09:44;0.20;;;0.20;;
24771;SDS011;12870;52.274;9.754;2023-03-01T14:15:10;0.20;;;0.20;;
24771;SDS011;12870;52.274;9.754;2023-03-01T14:20:24;0.20;;;0.20;;
24771;SDS011;12870;52.274;9.754;2023-03-01T14:22:53;0.20;;;0.20;;
24771;SDS011;12870;52.274;9.754;2023-03-01T14:25:29;0.20;;;0.20;;
24771;SDS011;12870;52.274;9.754;2023-03-01T14:28:18;0.20;;;0.20;;
24771;SDS011;12870;52.274;9.754;2023-03-01T14:30:46;0.17;;;0.17;;
24771;SDS011;12870;52.274;9.754;2023-03-01T14:35:52;0.20;;;0.20;;
24771;SDS011;12870;52.274;9.754;2023-03-01T14:41:24;0.20;;;0.20;;
24771;SDS011;12870;52.274;9.754;2023-03-01T14:44:06;0.20;;;0.20;;
24771;SDS011;12870;52.274;9.754;2023-03-01T14:46:41;0.20;;;0.20;;
24771;SDS011;12870;52.274;9.754;2023-03-01T14:51:42;0.20;;;0.20;;
24771;SDS011;12870;52.274;9.754;2023-03-01T14:54:26;0.20;;;0.20;;
24771;SDS011;12870;52.274;9.754;2023-03-01T14:56:58;0.20;;;0.20;;
24771;SDS011;12870;52.274;9.754;2023-03-01T14:59:25;0.20;;;0.20;;
24771;SDS011;12870;52.274;9.754;2023-03-01T15:01:51;0.20;;;0.20;;
24771;SDS011;12870;52.274;9.754;2023-03-01T15:04:20;0.20;;;0.20;;
24771;SDS011;12870;52.274;9.754;2023-03-01T15:06:51;0.20;;;0.20;;
24771;SDS011;12870;52.274;9.754;2023-03-01T15:09:18;0.20;;;0.20;;
24771;SDS011;12870;52.274;9.754;2023-03-01T15:11:44;0.20;;;0.20;;
24771;SDS011;12870;52.274;9.754;2023-03-01T15:14:26;0.20;;;0.20;;
24771;SDS011;12870;52.274;9.754;2023-03-01T15:16:53;0.20;;;0.20;;
24771;SDS011;12870;52.274;9.754;2023-03-01T15:19:19;0.20;;;0.20;;
24771;SDS011;12870;52.274;9.754;2023-03-01T15:21:46;0.20;;;0.20;;
24771;SDS011;12870;52.274;9.754;2023-03-01T15:24:19;0.20;;;0.20;;
24771;SDS011;12870;52.274;9.754;2023-03-01T15:29:23;0.20;;;0.20;;
24771;SDS011;12870;52.274;9.754;2023-03-01T15:31:56;0.20;;;0.20;;
24771;SDS011;12870;52.274;9.754;2023-03-01T15:36:52;0.10;;;0.10;;
24771;SDS011;12870;52.274;9.754;2023-03-01T15:40:01;0.20;;;0.20;;
24771;SDS011;12870;52.274;9.754;2023-03-01T15:47:55;0.20;;;0.20;;
24771;SDS011;12870;52.274;9.754;2023-03-01T15:50:35;0.20;;;0.20;;
24771;SDS011;12870;52.274;9.754;2023-03-01T15:53:06;0.20;;;0.20;;
24771;SDS011;12870;52.274;9.754;2023-03-01T15:55:36;0.20;;;0.20;;
24771;SDS011;12870;52.274;9.754;2023-03-01T15:58:04;0.20;;;0.20;;
24771;SDS011;12870;52.274;9.754;2023-03-01T16:00:37;0.20;;;0.20;;
24771;SDS011;12870;52.274;9.754;2023-03-01T16:03:04;0.20;;;0.20;;
24771;SDS011;12870;52.274;9.754;2023-03-01T16:05:31;0.20;;;0.20;;
24771;SDS011;12870;52.274;9.754;2023-03-01T16:07:59;0.20;;;0.20;;
24771;SDS011;12870;52.274;9.754;2023-03-01T16:10:26;0.20;;;0.20;;
24771;SDS011;12870;52.274;9.754;2023-03-01T16:12:52;0.20;;;0.20;;
24771;SDS011;12870;52.274;9.754;2023-03-01T16:17:49;0.20;;;0.20;;
24771;SDS011;12870;52.274;9.754;2023-03-01T16:20:15;0.20;;;0.20;;
24771;SDS011;12870;52.274;9.754;2023-03-01T16:22:42;0.20;;;0.20;;
24771;SDS011;12870;52.274;9.754;2023-03-01T16:25:09;0.20;;;0.20;;
24771;SDS011;12870;52.274;9.754;2023-03-01T16:27:36;0.20;;;0.20;;
24771;SDS011;12870;52.274;9.754;2023-03-01T16:30:02;0.20;;;0.20;;
24771;SDS011;12870;52.274;9.754;2023-03-01T16:32:29;0.20;;;0.20;;
24771;SDS011;12870;52.274;9.754;2023-03-01T16:34:54;0.20;;;0.20;;
24771;SDS011;12870;52.274;9.754;2023-03-01T16:37:20;0.20;;;0.20;;
24771;SDS011;12870;52.274;9.754;2023-03-01T16:39:46;0.20;;;0.20;;
24771;SDS011;12870;52.274;9.754;2023-03-01T16:42:15;0.20;;;0.20;;
24771;SDS011;12870;52.274;9.754;2023-03-01T16:44:41;0.20;;;0.20;;
24771;SDS011;12870;52.274;9.754;2023-03-01T16:47:07;0.20;;;0.20;;
24771;SDS011;12870;52.274;9.754;2023-03-01T16:49:33;0.20;;;0.20;;
24771;SDS011;12870;52.274;9.754;2023-03-01T16:51:58;0.20;;;0.20;;
24771;SDS011;12870;52.274;9.754;2023-03-01T16:54:24;0.20;;;0.20;;
24771;SDS011;12870;52.274;9.754;2023-03-01T16:56:50;0.20;;;0.20;;
24771;SDS011;12870;52.274;9.754;2023-03-01T16:59:15;0.20;;;0.20;;
24771;SDS011;12870;52.274;9.754;2023-03-01T17:01:43;0.20;;;0.20;;
24771;SDS011;12870;52.274;9.754;2023-03-01T17:04:10;0.20;;;0.20;;
24771;SDS011;12870;52.274;9.754;2023-03-01T17:06:36;0.20;;;0.20;;
24771;SDS011;12870;52.274;9.754;2023-03-01T17:09:02;0.20;;;0.20;;
24771;SDS011;12870;52.274;9.754;2023-03-01T17:11:28;0.20;;;0.20;;
24771;SDS011;12870;52.274;9.754;2023-03-01T17:13:54;0.20;;;0.20;;
24771;SDS011;12870;52.274;9.754;2023-03-01T17:16:20;0.20;;;0.20;;
24771;SDS011;12870;52.274;9.754;2023-03-01T17:18:46;0.20;;;0.20;;
24771;SDS011;12870;52.274;9.754;2023-03-01T17:21:12;0.20;;;0.20;;
24771;SDS011;12870;52.274;9.754;2023-03-01T17:23:39;0.20;;;0.20;;
24771;SDS011;12870;52.274;9.754;2023-03-01T17:26:07;0.20;;;0.20;;